createdAt,value
2022-11-08T00:00:28.839Z,97893.52
2022-11-08T00:02:58.542Z,97892.41
2022-11-08T00:05:44.944Z,97890.60
2022-11-08T00:08:31.168Z,97895.20
2022-11-08T00:11:22.609Z,97893.03
2022-11-08T00:13:59.851Z,97882.59
2022-11-08T00:16:28.843Z,97879.25
2022-11-08T00:18:56.745Z,97881.33
2022-11-08T00:21:24.934Z,97876.41
2022-11-08T00:23:53.350Z,97877.42
2022-11-08T00:26:21.111Z,97876.47
2022-11-08T00:28:48.960Z,97873.92
2022-11-08T00:31:16.860Z,97872.90
2022-11-08T00:33:44.776Z,97877.23
2022-11-08T00:36:12.601Z,97883.27
2022-11-08T00:38:44.601Z,97878.41
2022-11-08T00:41:12.560Z,97881.66
2022-11-08T00:43:40.518Z,97872.50
2022-11-08T00:46:08.540Z,97881.36
2022-11-08T00:48:36.507Z,97875.98
2022-11-08T00:51:07.188Z,97874.31
2022-11-08T00:53:37.908Z,97872.11
2022-11-08T00:56:12.513Z,97875.82
2022-11-08T00:58:43.472Z,97876.87
2022-11-08T01:01:17.909Z,97869.02
2022-11-08T01:03:47.573Z,97869.75
2022-11-08T01:06:19.210Z,97868.63
2022-11-08T01:08:49.413Z,97869.42
2022-11-08T01:11:21.056Z,97872.90
2022-11-08T01:13:50.592Z,97866.73
2022-11-08T01:16:22.935Z,97869.65
2022-11-08T01:18:53.305Z,97869.65
2022-11-08T01:21:22.108Z,97872.44
2022-11-08T01:23:50.063Z,97867.35
2022-11-08T01:26:21.898Z,97865.38
2022-11-08T01:28:49.863Z,97862.69
2022-11-08T01:31:22.056Z,97874.24
2022-11-08T01:33:51.823Z,97871.81
2022-11-08T01:36:25.472Z,97868.80
2022-11-08T01:38:54.307Z,97873.06
2022-11-08T01:41:24.760Z,97871.97
2022-11-08T01:43:58.575Z,97874.11
2022-11-08T01:46:45.588Z,97874.67
2022-11-08T01:49:33.805Z,97872.77
2022-11-08T01:52:10.245Z,97872.20
2022-11-08T01:54:43.676Z,97863.90
2022-11-08T01:57:16.660Z,97871.42
2022-11-08T01:59:47.237Z,97870.62
2022-11-08T02:02:15.664Z,97869.28
2022-11-08T02:04:44.365Z,97870.62
2022-11-08T02:07:14.010Z,97875.13
2022-11-08T02:09:45.040Z,97872.37
2022-11-08T02:12:14.979Z,97876.64
2022-11-08T02:14:43.008Z,97872.30
2022-11-08T02:17:11.510Z,97872.53
2022-11-08T02:19:46.110Z,97876.01
2022-11-08T02:22:21.885Z,97872.76
2022-11-08T02:24:49.709Z,97876.56
2022-11-08T02:27:17.528Z,97873.39
2022-11-08T02:29:45.828Z,97878.23
2022-11-08T02:32:14.915Z,97881.23
2022-11-08T02:34:47.936Z,97887.17
2022-11-08T02:37:18.669Z,97890.42
2022-11-08T02:39:47.471Z,97888.84
2022-11-08T02:42:19.445Z,97890.72
2022-11-08T02:44:47.668Z,97889.63
2022-11-08T02:47:16.128Z,97890.42
2022-11-08T02:49:44.066Z,97885.83
2022-11-08T02:52:11.869Z,97893.73
2022-11-08T02:54:39.762Z,97894.36
2022-11-08T02:57:07.894Z,97890.95
2022-11-08T02:59:35.751Z,97891.34
2022-11-08T03:02:03.944Z,97887.14
2022-11-08T03:04:32.002Z,97892.36
2022-11-08T03:06:59.963Z,97887.04
2022-11-08T03:09:27.846Z,97892.98
2022-11-08T03:11:59.876Z,97898.06
2022-11-08T03:14:39.776Z,97889.17
2022-11-08T03:17:07.905Z,97887.83
2022-11-08T03:19:46.717Z,97885.95
2022-11-08T03:22:19.582Z,97887.04
2022-11-08T03:24:47.299Z,97896.06
2022-11-08T03:27:15.152Z,97899.70
2022-11-08T03:29:43.123Z,97894.15
2022-11-08T03:32:11.260Z,97899.04
2022-11-08T03:34:39.109Z,97893.42
2022-11-08T03:37:09.308Z,97895.56
2022-11-08T03:39:37.343Z,97897.46
2022-11-08T03:42:06.031Z,97900.61
2022-11-08T03:44:34.099Z,97902.45
2022-11-08T03:47:02.137Z,97897.30
2022-11-08T03:49:29.781Z,97893.03
2022-11-08T03:51:57.775Z,97893.33
2022-11-08T03:54:25.628Z,97895.63
2022-11-08T03:56:53.893Z,97896.24
2022-11-08T03:59:21.940Z,97894.11
2022-11-08T04:01:49.901Z,97895.69
2022-11-08T04:04:18.103Z,97896.18
2022-11-08T04:06:49.090Z,97895.33
2022-11-08T04:09:21.362Z,97887.26
2022-11-08T04:12:05.694Z,97891.52
2022-11-08T04:14:51.860Z,97892.87
2022-11-08T04:17:21.605Z,97895.86
2022-11-08T04:20:07.664Z,97900.38
2022-11-08T04:22:35.186Z,97895.56
2022-11-08T04:25:03.092Z,97896.18
2022-11-08T04:27:39.867Z,97899.72
2022-11-08T04:30:06.320Z,97906.94
2022-11-08T04:32:34.100Z,97909.86
2022-11-08T04:35:02.176Z,97910.36
2022-11-08T04:37:30.178Z,97909.24
2022-11-08T04:39:58.458Z,97908.12
2022-11-08T04:42:26.503Z,97910.29
2022-11-08T04:44:54.480Z,97917.48
2022-11-08T04:47:22.615Z,97914.73
2022-11-08T04:49:51.245Z,97915.22
2022-11-08T04:52:19.682Z,97912.03
2022-11-08T04:54:47.485Z,97913.15
2022-11-08T04:57:18.105Z,97912.33
2022-11-08T04:59:50.636Z,97915.02
2022-11-08T05:02:16.721Z,97917.72
2022-11-08T05:04:47.051Z,97917.65
2022-11-08T05:07:15.093Z,97918.44
2022-11-08T05:09:42.784Z,97921.95
2022-11-08T05:12:11.230Z,97929.20
2022-11-08T05:14:38.882Z,97935.14
2022-11-08T05:17:06.955Z,97939.73
2022-11-08T05:19:52.992Z,97941.63
2022-11-08T05:22:39.370Z,97943.21
2022-11-08T05:25:08.178Z,97945.11
2022-11-08T05:27:35.934Z,97951.84
2022-11-08T05:30:05.519Z,97947.51
2022-11-08T05:32:33.378Z,97959.84
2022-11-08T05:35:01.315Z,97956.28
2022-11-08T05:37:28.949Z,97959.78
2022-11-08T05:39:56.467Z,97969.11
2022-11-08T05:42:24.327Z,97968.09
2022-11-08T05:44:52.095Z,97966.42
2022-11-08T05:47:20.232Z,97967.47
2022-11-08T05:49:47.843Z,97968.27
2022-11-08T05:52:15.157Z,97973.31
2022-11-08T05:54:42.615Z,97978.41
2022-11-08T05:57:10.933Z,97976.50
2022-11-08T05:59:39.060Z,97975.95
2022-11-08T06:02:06.920Z,97975.39
2022-11-08T06:04:34.799Z,97975.39
2022-11-08T06:07:02.589Z,97977.79
2022-11-08T06:09:30.524Z,97972.64
2022-11-08T06:11:58.236Z,97979.36
2022-11-08T06:14:26.003Z,97980.65
2022-11-08T06:16:53.728Z,97976.28
2022-11-08T06:19:21.523Z,97979.38
2022-11-08T06:21:49.357Z,97976.63
2022-11-08T06:24:17.042Z,97981.06
2022-11-08T06:26:44.724Z,97972.63
2022-11-08T06:29:12.394Z,97979.81
2022-11-08T06:31:43.069Z,97984.25
2022-11-08T06:34:10.175Z,97984.42
2022-11-08T06:36:38.034Z,97988.09
2022-11-08T06:39:06.204Z,97991.19
2022-11-08T06:41:34.381Z,97996.17
2022-11-08T06:44:02.123Z,97989.61
2022-11-08T06:46:29.806Z,97990.50
2022-11-08T06:48:57.707Z,97986.45
2022-11-08T06:51:25.529Z,97992.95
2022-11-08T06:53:53.299Z,97991.28
2022-11-08T06:56:21.168Z,97995.03
2022-11-08T06:58:49.025Z,97994.70
2022-11-08T07:01:16.849Z,97997.63
2022-11-08T07:03:45.161Z,97998.11
2022-11-08T07:06:12.907Z,98000.97
2022-11-08T07:08:40.491Z,97999.22
2022-11-08T07:11:08.800Z,97998.59
2022-11-08T07:13:36.527Z,97995.58
2022-11-08T07:16:04.728Z,97997.08
2022-11-08T07:18:32.311Z,97995.03
2022-11-08T07:21:01.627Z,97997.27
2022-11-08T07:23:29.549Z,97997.02
2022-11-08T07:26:07.771Z,97995.35
2022-11-08T07:28:35.541Z,97998.28
2022-11-08T07:31:04.790Z,97997.88
2022-11-08T07:33:33.009Z,97997.55
2022-11-08T07:36:00.914Z,97998.63
2022-11-08T07:38:28.726Z,98004.24
2022-11-08T07:40:59.511Z,97999.64
2022-11-08T07:43:29.487Z,97992.94
2022-11-08T07:46:01.701Z,97995.19
2022-11-08T07:48:31.219Z,97995.97
2022-11-08T07:50:59.386Z,97999.45
2022-11-08T07:53:27.195Z,98003.92
2022-11-08T07:55:55.094Z,97995.45
2022-11-08T07:58:22.914Z,97995.27
2022-11-08T08:00:51.202Z,97998.55
2022-11-08T08:03:19.665Z,97994.55
2022-11-08T08:05:52.944Z,97995.34
2022-11-08T08:08:21.922Z,97995.81
2022-11-08T08:10:49.878Z,97997.52
2022-11-08T08:13:18.169Z,97991.06
2022-11-08T08:15:46.444Z,97993.30
2022-11-08T08:18:13.910Z,97990.89
2022-11-08T08:20:41.907Z,97990.52
2022-11-08T08:23:09.610Z,97995.98
2022-11-08T08:25:37.387Z,97995.03
2022-11-08T08:28:06.493Z,97986.83
2022-11-08T08:30:34.438Z,97992.53
2022-11-08T08:33:27.476Z,97995.91
2022-11-08T08:35:39.644Z,98001.67
2022-11-08T08:38:07.198Z,97995.77
2022-11-08T08:40:35.003Z,97999.47
2022-11-08T08:43:04.774Z,97998.78
2022-11-08T08:45:34.379Z,97997.94
2022-11-08T08:48:03.803Z,98003.13
2022-11-08T08:50:32.472Z,97996.92
2022-11-08T08:53:03.551Z,98004.14
2022-11-08T08:55:34.243Z,97998.57
2022-11-08T08:58:02.086Z,98004.22
2022-11-08T09:03:05.034Z,98001.83
2022-11-08T09:05:34.067Z,98000.57
2022-11-08T09:08:03.221Z,98001.41
2022-11-08T09:10:31.026Z,97998.48
2022-11-08T09:13:01.276Z,97997.20
2022-11-08T09:15:29.226Z,98007.86
2022-11-08T09:17:57.937Z,98005.52
2022-11-08T09:20:26.453Z,98011.00
2022-11-08T09:22:54.385Z,98013.80
2022-11-08T09:25:21.821Z,98011.09
2022-11-08T09:27:49.538Z,98015.84
2022-11-08T09:30:17.344Z,98015.38
2022-11-08T09:33:01.951Z,98011.87
2022-11-08T09:35:14.775Z,98018.87
2022-11-08T09:37:48.751Z,98010.64
2022-11-08T09:40:29.524Z,98012.56
2022-11-08T09:43:31.333Z,98014.70
2022-11-08T09:45:59.202Z,98016.52
2022-11-08T09:48:37.192Z,98015.73
2022-11-08T09:51:18.411Z,98019.80
2022-11-08T09:54:03.683Z,98018.56
2022-11-08T09:56:37.313Z,98015.41
2022-11-08T09:59:25.168Z,98017.20
2022-11-08T10:01:52.947Z,98015.30
2022-11-08T10:04:26.658Z,98015.06
2022-11-08T10:07:20.404Z,98010.56
2022-11-08T10:10:07.747Z,98014.27
2022-11-08T10:13:02.271Z,98016.88
2022-11-08T10:15:59.776Z,98010.21
2022-11-08T10:19:03.518Z,98009.10
2022-11-08T10:21:59.413Z,98004.22
2022-11-08T10:24:35.478Z,98002.71
2022-11-08T10:27:07.977Z,98000.00
2022-11-08T10:29:44.238Z,97995.36
2022-11-08T10:32:19.446Z,97994.29
2022-11-08T10:35:11.209Z,97996.74
2022-11-08T10:37:45.065Z,97998.73
2022-11-08T10:40:21.943Z,97995.58
2022-11-08T10:43:10.080Z,97996.77
2022-11-08T10:45:37.909Z,97994.17
2022-11-08T10:48:06.402Z,97994.14
2022-11-08T10:50:48.858Z,97986.95
2022-11-08T10:53:21.970Z,97994.89
2022-11-08T10:55:52.968Z,97991.09
2022-11-08T10:58:31.166Z,97997.91
2022-11-08T11:01:06.713Z,97996.80
2022-11-08T11:03:34.211Z,97996.41
2022-11-08T11:06:05.948Z,97994.98
2022-11-08T11:08:34.229Z,97991.77
2022-11-08T11:11:34.823Z,97990.80
2022-11-08T11:14:22.324Z,97995.64
2022-11-08T11:17:15.726Z,97986.69
2022-11-08T11:19:53.442Z,97982.59
2022-11-08T11:22:33.242Z,97980.66
2022-11-08T11:25:09.808Z,97975.46
2022-11-08T11:27:38.215Z,97977.17
2022-11-08T11:30:30.081Z,97981.51
2022-11-08T11:33:15.180Z,97983.70
2022-11-08T11:36:17.250Z,97982.41
2022-11-08T11:38:51.086Z,97983.92
2022-11-08T11:41:30.294Z,97982.81
2022-11-08T11:44:12.896Z,97980.09
2022-11-08T11:47:14.749Z,97974.34
2022-11-08T11:49:45.321Z,97977.72
2022-11-08T11:52:18.857Z,97970.63
2022-11-08T11:54:49.779Z,97975.32
2022-11-08T11:57:43.138Z,97962.99
2022-11-08T12:00:16.009Z,97968.09
2022-11-08T12:03:01.754Z,97970.09
2022-11-08T12:06:06.928Z,97962.86
2022-11-08T12:08:49.435Z,97965.33
2022-11-08T12:11:58.919Z,97965.41
2022-11-08T12:14:56.668Z,97966.89
2022-11-08T12:17:32.645Z,97966.20
2022-11-08T12:20:32.632Z,97969.47
2022-11-08T12:23:11.489Z,97970.82
2022-11-08T12:25:53.771Z,97973.63
2022-11-08T12:28:42.420Z,97972.62
2022-11-08T12:31:52.136Z,97967.74
2022-11-08T12:34:52.594Z,97967.87
2022-11-08T12:37:41.060Z,97973.41
2022-11-08T12:40:20.114Z,97970.82
2022-11-08T12:43:27.930Z,97969.34
2022-11-08T12:46:09.877Z,97973.30
2022-11-08T12:49:02.948Z,97979.28
2022-11-08T12:52:00.677Z,97984.69
2022-11-08T12:54:57.222Z,97978.61
2022-11-08T12:57:27.276Z,97978.15
2022-11-08T13:00:10.323Z,97977.45
2022-11-08T13:02:39.667Z,97974.97
2022-11-08T13:05:28.689Z,97974.38
2022-11-08T13:08:30.804Z,97981.70
2022-11-08T13:11:10.051Z,97979.57
2022-11-08T13:13:56.603Z,97982.40
2022-11-08T13:16:38.673Z,97978.81
2022-11-08T13:19:06.552Z,97981.39
2022-11-08T13:21:39.109Z,97976.33
2022-11-08T13:24:38.372Z,97980.38
2022-11-08T13:26:42.698Z,97984.22
2022-11-08T13:29:19.020Z,97983.88
2022-11-08T13:32:07.027Z,97979.59
2022-11-08T13:35:00.936Z,97980.95
2022-11-08T13:37:45.823Z,97982.97
2022-11-08T13:40:46.321Z,97984.76
2022-11-08T13:43:25.785Z,97986.77
2022-11-08T13:45:55.797Z,97983.47
2022-11-08T13:48:37.218Z,97983.59
2022-11-08T13:51:30.194Z,97979.41
2022-11-08T13:54:04.789Z,97980.38
2022-11-08T13:56:46.422Z,97984.31
2022-11-08T13:59:38.775Z,97980.13
2022-11-08T14:02:27.105Z,97986.75
2022-11-08T14:04:58.403Z,97988.20
2022-11-08T14:07:44.031Z,97988.33
2022-11-08T14:10:24.008Z,97984.36
2022-11-08T14:13:17.914Z,97988.50
2022-11-08T14:16:02.784Z,97981.17
2022-11-08T14:18:33.768Z,97987.45
2022-11-08T14:21:04.917Z,97980.34
2022-11-08T14:23:39.873Z,97980.77
2022-11-08T14:26:21.479Z,97983.84
2022-11-08T14:28:50.918Z,97975.86
2022-11-08T14:31:29.978Z,97982.84
2022-11-08T14:33:59.877Z,97979.44
2022-11-08T14:36:30.576Z,97983.83
2022-11-08T14:39:15.217Z,97986.62
2022-11-08T14:41:50.280Z,97982.91
2022-11-08T14:44:19.502Z,97983.22
2022-11-08T14:46:48.576Z,97987.84
2022-11-08T14:49:24.226Z,97982.86
2022-11-08T14:52:23.135Z,97966.33
2022-11-08T14:55:07.475Z,97978.45
2022-11-08T14:57:45.069Z,97987.09
2022-11-08T15:00:24.755Z,97986.41
2022-11-08T15:02:57.757Z,97987.06
2022-11-08T15:05:37.229Z,97993.56
2022-11-08T15:08:28.528Z,97983.19
2022-11-08T15:11:01.683Z,97979.47
2022-11-08T15:13:39.909Z,97980.91
2022-11-08T15:16:09.641Z,97976.49
2022-11-08T15:18:43.012Z,97976.35
2022-11-08T15:21:30.574Z,97979.14
2022-11-08T15:24:11.454Z,97970.89
2022-11-08T15:26:39.827Z,97971.82
2022-11-08T15:29:19.567Z,97976.59
2022-11-08T15:32:01.368Z,97968.55
2022-11-08T15:34:39.126Z,97971.61
2022-11-08T15:37:35.571Z,97973.08
2022-11-08T15:40:19.931Z,97968.97
2022-11-08T15:42:51.395Z,97969.45
2022-11-08T15:45:25.613Z,97971.63
2022-11-08T15:48:03.767Z,97974.33
2022-11-08T15:50:32.344Z,97975.93
2022-11-08T15:53:03.137Z,97982.11
2022-11-08T15:55:41.795Z,97981.55
2022-11-08T15:58:16.949Z,97981.00
2022-11-08T16:00:48.039Z,97980.53
2022-11-08T16:03:15.669Z,97980.06
2022-11-08T16:05:43.350Z,97982.77
2022-11-08T16:08:13.340Z,97987.56
2022-11-08T16:10:44.444Z,97985.89
2022-11-08T16:13:29.055Z,97988.89
2022-11-08T16:15:58.758Z,97991.02
2022-11-08T16:18:26.734Z,98000.17
2022-11-08T16:20:54.673Z,97996.69
2022-11-08T16:23:22.117Z,97997.20
2022-11-08T16:25:54.125Z,97997.41
2022-11-08T16:28:33.918Z,98004.03
2022-11-08T16:31:09.437Z,98005.27
2022-11-08T16:33:37.089Z,98002.17
2022-11-08T16:36:24.101Z,98001.59
2022-11-08T16:38:57.420Z,98000.36
2022-11-08T16:41:26.402Z,98002.73
2022-11-08T16:43:55.941Z,98002.92
2022-11-08T16:46:23.744Z,98004.80
2022-11-08T16:48:59.038Z,98003.37
2022-11-08T16:51:26.812Z,98014.27
2022-11-08T16:53:54.185Z,98013.91
2022-11-08T16:56:21.858Z,98012.37
2022-11-08T16:58:49.800Z,98013.27
2022-11-08T17:01:21.895Z,98015.04
2022-11-08T17:03:49.364Z,98017.86
2022-11-08T17:06:18.372Z,98014.20
2022-11-08T17:08:46.137Z,98018.33
2022-11-08T17:11:21.451Z,98011.79
2022-11-08T17:13:50.074Z,98014.61
2022-11-08T17:16:18.311Z,98023.55
2022-11-08T17:18:51.244Z,98020.67
2022-11-08T17:21:43.266Z,98024.83
2022-11-08T17:23:45.391Z,98016.03
2022-11-08T17:26:12.783Z,98016.34
2022-11-08T17:28:40.913Z,98022.55
2022-11-08T17:31:13.127Z,98019.08
2022-11-08T17:33:41.142Z,98017.49
2022-11-08T17:36:12.349Z,98020.17
2022-11-08T17:38:42.037Z,98021.02
2022-11-08T17:41:14.678Z,98019.24
2022-11-08T17:43:43.144Z,98028.38
2022-11-08T17:46:11.768Z,98020.94
2022-11-08T17:48:40.186Z,98022.28
2022-11-08T17:51:08.996Z,98022.57
2022-11-08T17:53:36.840Z,98019.37
2022-11-08T17:56:06.262Z,98023.41
2022-11-08T17:58:34.981Z,98018.03
2022-11-08T18:01:05.809Z,98016.97
2022-11-08T18:03:34.777Z,98018.30
2022-11-08T18:06:06.692Z,98023.36
2022-11-08T18:08:35.462Z,98024.66
2022-11-08T18:11:03.739Z,98023.00
2022-11-08T18:13:33.496Z,98022.48
2022-11-08T18:16:13.950Z,98022.41
2022-11-08T18:18:42.119Z,98022.05
2022-11-08T18:21:10.578Z,98018.52
2022-11-08T18:23:45.437Z,98020.89
2022-11-08T18:26:18.065Z,98023.58
2022-11-08T18:28:46.048Z,98026.03
2022-11-08T18:31:17.183Z,98026.03
2022-11-08T18:33:45.397Z,98026.58
2022-11-08T18:36:19.963Z,98025.47
2022-11-08T18:38:49.557Z,98022.74
2022-11-08T18:41:21.806Z,98029.45
2022-11-08T18:43:49.175Z,98027.32
2022-11-08T18:46:24.501Z,98032.50
2022-11-08T18:48:52.229Z,98033.34
2022-11-08T18:51:22.535Z,98034.25
2022-11-08T18:53:51.862Z,98029.79
2022-11-08T18:56:20.080Z,98033.63
2022-11-08T18:58:48.440Z,98035.80
2022-11-08T19:01:16.626Z,98044.16
2022-11-08T19:03:47.624Z,98042.87
2022-11-08T19:06:28.439Z,98036.75
2022-11-08T19:09:00.499Z,98041.69
2022-11-08T19:11:32.110Z,98043.86
2022-11-08T19:14:01.338Z,98039.64
2022-11-08T19:16:32.955Z,98041.29
2022-11-08T19:19:00.855Z,98041.92
2022-11-08T19:21:28.763Z,98040.63
2022-11-08T19:23:59.438Z,98048.75
2022-11-08T19:26:36.171Z,98050.72
2022-11-08T19:29:05.510Z,98047.08
2022-11-08T19:31:42.102Z,98052.01
2022-11-08T19:34:10.452Z,98051.80
2022-11-08T19:36:45.603Z,98050.27
2022-11-08T19:39:13.227Z,98055.11
2022-11-08T19:41:41.363Z,98051.95
2022-11-08T19:44:10.125Z,98051.47
2022-11-08T19:46:38.571Z,98048.59
2022-11-08T19:49:06.477Z,98045.13
2022-11-08T19:51:35.042Z,98048.70
2022-11-08T19:54:07.494Z,98057.59
2022-11-08T19:59:07.350Z,98051.52
2022-11-08T20:01:39.494Z,98057.16
2022-11-08T20:04:11.051Z,98053.47
2022-11-08T20:06:39.574Z,98050.89
2022-11-08T20:09:09.125Z,98056.29
2022-11-08T20:11:41.138Z,98061.44
2022-11-08T20:14:12.481Z,98066.83
2022-11-08T20:16:42.592Z,98064.46
2022-11-08T20:19:14.107Z,98065.34
2022-11-08T20:21:43.979Z,98063.80
2022-11-08T20:24:14.021Z,98062.48
2022-11-08T20:26:42.955Z,98060.14
2022-11-08T20:29:10.759Z,98063.98
2022-11-08T20:31:39.124Z,98071.50
2022-11-08T20:34:10.085Z,98067.02
2022-11-08T20:36:44.187Z,98069.48
2022-11-08T20:39:14.604Z,98072.74
2022-11-08T20:41:44.481Z,98071.43
2022-11-08T20:44:12.599Z,98073.08
2022-11-08T20:46:40.909Z,98072.31
2022-11-08T20:49:09.282Z,98079.58
2022-11-08T20:51:37.839Z,98074.28
2022-11-08T20:54:05.734Z,98074.06
2022-11-08T20:56:33.413Z,98076.47
2022-11-08T20:59:01.690Z,98076.25
2022-11-08T21:01:32.184Z,98074.42
2022-11-08T21:04:00.637Z,98076.33
2022-11-08T21:06:29.017Z,98075.02
2022-11-08T21:09:04.837Z,98071.88
2022-11-08T21:11:26.310Z,98078.84
2022-11-08T21:13:54.102Z,98078.08
2022-11-08T21:16:30.974Z,98080.80
2022-11-08T21:18:51.659Z,98085.39
2022-11-08T21:21:22.057Z,98086.48
2022-11-08T21:23:53.961Z,98089.98
2022-11-08T21:26:22.755Z,98087.08
2022-11-08T21:28:51.692Z,98086.85
2022-11-08T21:31:19.810Z,98082.88
2022-11-08T21:33:47.903Z,98079.73
2022-11-08T21:36:16.897Z,98079.27
2022-11-08T21:38:45.231Z,98077.70
2022-11-08T21:41:13.247Z,98077.48
2022-11-08T21:43:43.594Z,98076.45
2022-11-08T21:46:18.909Z,98081.84
2022-11-08T21:48:47.394Z,98071.22
2022-11-08T21:51:22.200Z,98071.26
2022-11-08T21:53:55.964Z,98067.86
2022-11-08T21:56:27.802Z,98065.50
2022-11-08T21:58:55.782Z,98077.03
2022-11-08T22:01:28.886Z,98079.22
2022-11-08T22:03:54.030Z,98078.69
2022-11-08T22:06:22.133Z,98069.89
2022-11-08T22:08:50.042Z,98069.15
2022-11-08T22:11:18.103Z,98075.30
2022-11-08T22:13:46.069Z,98080.13
2022-11-08T22:16:14.108Z,98074.28
2022-11-08T22:19:03.645Z,98076.17
2022-11-08T22:21:30.347Z,98071.94
2022-11-08T22:23:58.271Z,98074.88
2022-11-08T22:26:26.132Z,98082.38
2022-11-08T22:28:54.068Z,98073.02
2022-11-08T22:31:22.011Z,98073.89
2022-11-08T22:33:49.900Z,98080.33
2022-11-08T22:36:21.245Z,98077.42
2022-11-08T22:38:48.941Z,98078.23
2022-11-08T22:41:19.448Z,98079.33
2022-11-08T22:43:47.900Z,98077.76
2022-11-08T22:46:16.543Z,98078.31
2022-11-08T22:48:45.236Z,98077.78
2022-11-08T22:51:13.157Z,98081.04
2022-11-08T22:53:41.019Z,98084.81
2022-11-08T22:56:11.694Z,98085.07
2022-11-08T22:58:40.329Z,98081.61
2022-11-08T23:01:11.222Z,98087.47
2022-11-08T23:03:39.369Z,98087.22
2022-11-08T23:06:07.099Z,98086.69
2022-11-08T23:08:35.099Z,98084.31
2022-11-08T23:11:21.520Z,98089.65
2022-11-08T23:14:08.349Z,98077.64
2022-11-08T23:16:40.843Z,98083.81
2022-11-08T23:19:34.190Z,98080.61
2022-11-08T23:22:23.085Z,98084.38
2022-11-08T23:24:51.067Z,98082.55
2022-11-08T23:27:38.156Z,98079.34
2022-11-08T23:30:25.881Z,98084.14
2022-11-08T23:32:53.561Z,98079.89
2022-11-08T23:35:21.541Z,98079.64
2022-11-08T23:37:49.323Z,98081.78
2022-11-08T23:40:37.241Z,98077.53
2022-11-08T23:43:37.051Z,98077.02
2022-11-08T23:46:08.150Z,98079.45
2022-11-08T23:48:37.497Z,98078.92
2022-11-08T23:51:06.255Z,98074.67
2022-11-08T23:53:39.314Z,98076.30
2022-11-08T23:56:07.176Z,98084.06
2022-11-08T23:58:34.930Z,98086.48
